Time;durP1;ratioP1;P1;durP2;ratioP2;P2;SDS_P1;SDS_P2;PMS_P1;PMS_P2;Temp;Humidity;BMP_temperature;BMP_pressure;BME280_temperature;BME280_humidity;BME280_pressure;Samples;Min_cycle;Max_cycle;Signal;HPM_P1;HPM_P2
2024/02/02 00:00:59;;;;;;;23.87;7.80;;;;;;;;;;5114872;28;20442;-66
2024/02/02 00:03:26;;;;;;;17.50;6.97;;;;;;;;;;5114708;27;20461;-62
2024/02/02 00:05:54;;;;;;;16.40;7.07;;;;;;;;;;5116843;27;21093;-67
2024/02/02 00:08:20;;;;;;;15.70;6.60;;;;;;;;;;5113872;27;20493;-66
2024/02/02 00:10:47;;;;;;;26.27;7.43;;;;;;;;;;5106851;28;20455;-66
2024/02/02 00:13:15;;;;;;;25.60;6.60;;;;;;;;;;5116224;27;20458;-66
2024/02/02 00:15:41;;;;;;;18.73;7.60;;;;;;;;;;5119338;27;20962;-66
2024/02/02 00:18:08;;;;;;;27.33;8.77;;;;;;;;;;5116853;28;20560;-66
2024/02/02 00:20:34;;;;;;;17.20;9.50;;;;;;;;;;5108791;27;20515;-65
2024/02/02 00:23:02;;;;;;;15.50;6.97;;;;;;;;;;5118559;27;20458;-65
2024/02/02 00:25:29;;;;;;;22.77;7.70;;;;;;;;;;5118257;27;20893;-63
2024/02/02 00:27:55;;;;;;;18.73;8.00;;;;;;;;;;5119552;27;20469;-65
2024/02/02 00:30:22;;;;;;;16.17;7.37;;;;;;;;;;5121052;27;20868;-66
2024/02/02 00:32:49;;;;;;;13.83;6.73;;;;;;;;;;5117649;27;20459;-66
2024/02/02 00:35:15;;;;;;;23.17;8.80;;;;;;;;;;5113704;28;20491;-66
2024/02/02 00:37:44;;;;;;;28.87;8.97;;;;;;;;;;5110758;28;20465;-68
2024/02/02 00:40:12;;;;;;;20.07;7.03;;;;;;;;;;5119059;28;20454;-67
2024/02/02 00:42:39;;;;;;;19.13;7.80;;;;;;;;;;5115501;27;20515;-65
2024/02/02 00:45:06;;;;;;;19.70;7.80;;;;;;;;;;5110942;27;20467;-65
2024/02/02 00:47:33;;;;;;;20.13;7.20;;;;;;;;;;5112148;27;20477;-66
2024/02/02 00:50:00;;;;;;;20.63;8.70;;;;;;;;;;5111655;28;20470;-65
2024/02/02 00:52:26;;;;;;;19.63;8.47;;;;;;;;;;5114604;27;20532;-65
2024/02/02 00:54:53;;;;;;;25.93;8.07;;;;;;;;;;5110092;27;20446;-66
2024/02/02 00:57:21;;;;;;;15.80;7.00;;;;;;;;;;5114856;27;20959;-64
2024/02/02 00:59:50;;;;;;;22.07;7.67;;;;;;;;;;5112674;28;20458;-66
2024/02/02 01:02:16;;;;;;;23.23;8.40;;;;;;;;;;5116111;27;20507;-66
2024/02/02 01:04:43;;;;;;;24.60;8.00;;;;;;;;;;5113635;28;21026;-67
2024/02/02 01:07:09;;;;;;;17.13;8.70;;;;;;;;;;5117321;28;20581;-67
2024/02/02 01:09:36;;;;;;;13.03;8.30;;;;;;;;;;5111935;28;20492;-65
2024/02/02 01:12:03;;;;;;;22.97;9.03;;;;;;;;;;5104596;28;20450;-66
2024/02/02 01:14:32;;;;;;;18.33;7.73;;;;;;;;;;5112149;28;20450;-66
2024/02/02 01:16:58;;;;;;;24.00;8.60;;;;;;;;;;5117245;28;20450;-64
2024/02/02 01:19:25;;;;;;;17.10;9.10;;;;;;;;;;5118808;27;20454;-65
2024/02/02 01:21:52;;;;;;;21.83;9.67;;;;;;;;;;5114727;28;20450;-65
2024/02/02 01:24:18;;;;;;;25.03;10.07;;;;;;;;;;5117992;27;20462;-65
2024/02/02 01:26:45;;;;;;;29.77;10.00;;;;;;;;;;5114114;27;20525;-66
2024/02/02 01:29:11;;;;;;;23.70;8.70;;;;;;;;;;5117951;27;20490;-66
2024/02/02 01:31:39;;;;;;;24.23;10.53;;;;;;;;;;5114244;27;20962;-65
2024/02/02 01:34:06;;;;;;;25.63;11.10;;;;;;;;;;5117941;28;20511;-66
2024/02/02 01:36:33;;;;;;;23.37;10.90;;;;;;;;;;5117266;28;20449;-66
2024/02/02 01:39:00;;;;;;;26.23;11.13;;;;;;;;;;5113570;28;20474;-63
2024/02/02 01:41:27;;;;;;;26.60;11.40;;;;;;;;;;5114618;28;20971;-67
2024/02/02 01:43:55;;;;;;;25.67;10.27;;;;;;;;;;5115668;28;20458;-67
2024/02/02 01:46:22;;;;;;;28.20;12.70;;;;;;;;;;5118078;27;20844;-67
2024/02/02 01:48:50;;;;;;;27.40;11.90;;;;;;;;;;5116661;27;20498;-67
2024/02/02 01:51:16;;;;;;;27.90;12.37;;;;;;;;;;5115090;28;20534;-66
2024/02/02 01:53:43;;;;;;;17.87;11.13;;;;;;;;;;5114985;28;20459;-66
2024/02/02 01:56:10;;;;;;;28.90;12.53;;;;;;;;;;5118746;27;20450;-67
2024/02/02 01:58:36;;;;;;;29.50;13.97;;;;;;;;;;5107568;28;20445;-65
2024/02/02 02:01:03;;;;;;;22.93;13.50;;;;;;;;;;5109058;28;20451;-67
2024/02/02 02:03:29;;;;;;;29.83;13.53;;;;;;;;;;5117724;27;20952;-66
2024/02/02 02:05:58;;;;;;;30.47;13.53;;;;;;;;;;5110756;28;20475;-65
2024/02/02 02:08:24;;;;;;;29.50;14.00;;;;;;;;;;5113434;28;20489;-66
2024/02/02 02:10:51;;;;;;;28.20;14.10;;;;;;;;;;5116921;28;20454;-64
2024/02/02 02:13:18;;;;;;;23.83;13.03;;;;;;;;;;5115563;28;20450;-65
2024/02/02 02:15:44;;;;;;;34.33;14.70;;;;;;;;;;5120004;28;20450;-64
2024/02/02 02:18:11;;;;;;;24.20;15.23;;;;;;;;;;5117840;28;20447;-66
2024/02/02 02:20:39;;;;;;;23.70;14.77;;;;;;;;;;5116111;28;21086;-65
2024/02/02 02:23:08;;;;;;;26.57;13.93;;;;;;;;;;5113554;28;20461;-65
2024/02/02 02:25:34;;;;;;;24.90;14.00;;;;;;;;;;5111165;28;20881;-64
2024/02/02 02:28:01;;;;;;;35.77;15.80;;;;;;;;;;5113059;28;20539;-64
2024/02/02 02:30:27;;;;;;;31.97;14.70;;;;;;;;;;5116539;28;20480;-63
2024/02/02 02:32:54;;;;;;;26.70;16.80;;;;;;;;;;5118776;28;20544;-64
2024/02/02 02:35:20;;;;;;;32.27;16.20;;;;;;;;;;5112976;28;20473;-64
2024/02/02 02:37:47;;;;;;;32.60;18.43;;;;;;;;;;5115511;28;20470;-67
2024/02/02 02:40:16;;;;;;;34.53;18.00;;;;;;;;;;5116812;28;20991;-66
2024/02/02 02:42:42;;;;;;;31.00;17.43;;;;;;;;;;5108175;28;20484;-62
2024/02/02 02:45:09;;;;;;;32.93;19.23;;;;;;;;;;5112395;28;20500;-65
2024/02/02 02:47:35;;;;;;;35.50;18.80;;;;;;;;;;5117111;28;20479;-65
2024/02/02 02:50:02;;;;;;;31.33;16.57;;;;;;;;;;5106616;28;20495;-65
2024/02/02 02:52:28;;;;;;;35.17;17.27;;;;;;;;;;5111686;28;20474;-65
2024/02/02 02:54:55;;;;;;;26.70;14.90;;;;;;;;;;5110605;28;20864;-66
2024/02/02 02:57:22;;;;;;;29.10;15.50;;;;;;;;;;5117465;28;20454;-65
2024/02/02 02:59:49;;;;;;;30.53;15.13;;;;;;;;;;5110734;28;20454;-64
2024/02/02 03:02:15;;;;;;;30.77;14.63;;;;;;;;;;5110843;28;20441;-64
2024/02/02 03:04:41;;;;;;;32.37;13.30;;;;;;;;;;5104848;28;20459;-65
2024/02/02 03:07:07;;;;;;;34.63;14.10;;;;;;;;;;5114472;28;20518;-64
2024/02/02 03:09:35;;;;;;;19.20;10.63;;;;;;;;;;5108298;28;20236;-65
2024/02/02 03:12:02;;;;;;;38.50;12.67;;;;;;;;;;5114919;28;20461;-66
2024/02/02 03:14:30;;;;;;;30.63;13.27;;;;;;;;;;5113024;28;20541;-65
2024/02/02 03:16:57;;;;;;;25.90;11.67;;;;;;;;;;5101706;28;20445;-66
2024/02/02 03:19:23;;;;;;;24.70;10.30;;;;;;;;;;5112676;28;20450;-64
2024/02/02 03:21:50;;;;;;;30.57;11.53;;;;;;;;;;5104245;28;20467;-66
2024/02/02 03:24:16;;;;;;;23.90;11.43;;;;;;;;;;5113468;28;20469;-66
2024/02/02 03:26:43;;;;;;;34.40;12.00;;;;;;;;;;5117091;28;20516;-65
2024/02/02 03:29:09;;;;;;;24.30;13.17;;;;;;;;;;5116797;28;20515;-65
2024/02/02 03:31:37;;;;;;;21.50;10.00;;;;;;;;;;5121787;27;20441;-67
2024/02/02 03:34:04;;;;;;;18.53;10.70;;;;;;;;;;5118458;27;20525;-65
2024/02/02 03:36:31;;;;;;;24.43;11.97;;;;;;;;;;5119377;27;20756;-66
2024/02/02 03:38:57;;;;;;;19.10;10.60;;;;;;;;;;5111125;28;20541;-67
2024/02/02 03:41:24;;;;;;;19.30;10.00;;;;;;;;;;5118446;28;20446;-65
2024/02/02 03:43:51;;;;;;;23.00;10.53;;;;;;;;;;5113341;27;20446;-66
2024/02/02 03:46:19;;;;;;;24.80;10.93;;;;;;;;;;5121360;27;20457;-66
2024/02/02 03:48:48;;;;;;;17.73;10.90;;;;;;;;;;5113331;28;20485;-65
2024/02/02 03:51:15;;;;;;;24.37;11.27;;;;;;;;;;5114823;27;20473;-64
2024/02/02 03:53:41;;;;;;;19.17;9.80;;;;;;;;;;5116356;27;20483;-65
2024/02/02 03:56:08;;;;;;;25.90;11.07;;;;;;;;;;5115856;27;20447;-62
2024/02/02 03:58:34;;;;;;;19.90;10.30;;;;;;;;;;5109578;28;20447;-66
2024/02/02 04:01:01;;;;;;;19.27;9.70;;;;;;;;;;5113350;27;20510;-66
2024/02/02 04:03:27;;;;;;;24.40;10.30;;;;;;;;;;5117543;27;20531;-67
2024/02/02 04:05:55;;;;;;;24.90;10.17;;;;;;;;;;5119838;27;20446;-67
2024/02/02 04:08:22;;;;;;;17.90;10.13;;;;;;;;;;5109642;28;20507;-66
2024/02/02 04:10:48;;;;;;;22.57;11.07;;;;;;;;;;5109253;28;20825;-66
2024/02/02 04:13:15;;;;;;;21.43;9.43;;;;;;;;;;5115345;27;20447;-65
2024/02/02 04:15:42;;;;;;;21.13;9.90;;;;;;;;;;5114051;27;20446;-65
2024/02/02 04:18:08;;;;;;;21.87;10.90;;;;;;;;;;5113207;28;20491;-65
2024/02/02 04:20:35;;;;;;;27.20;11.47;;;;;;;;;;5117273;27;20515;-67
2024/02/02 04:23:03;;;;;;;25.77;10.40;;;;;;;;;;5110252;27;20454;-65
2024/02/02 04:25:29;;;;;;;27.17;9.73;;;;;;;;;;5115575;27;20451;-62
2024/02/02 04:27:56;;;;;;;20.03;10.47;;;;;;;;;;5107476;27;20508;-67
2024/02/02 04:30:23;;;;;;;19.20;10.43;;;;;;;;;;5114127;27;20481;-65
2024/02/02 04:32:49;;;;;;;30.97;10.07;;;;;;;;;;5106297;28;21019;-65
2024/02/02 04:35:16;;;;;;;16.70;9.97;;;;;;;;;;5115803;28;20485;-64
2024/02/02 04:37:43;;;;;;;17.43;10.27;;;;;;;;;;5117520;28;20465;-65
2024/02/02 04:40:11;;;;;;;18.90;9.93;;;;;;;;;;5114254;27;20517;-66
2024/02/02 04:42:38;;;;;;;21.80;10.23;;;;;;;;;;5111505;27;20496;-66
2024/02/02 04:45:05;;;;;;;22.67;10.67;;;;;;;;;;5118375;27;20621;-66
2024/02/02 04:47:31;;;;;;;28.03;10.37;;;;;;;;;;5109428;27;20443;-66
2024/02/02 04:49:58;;;;;;;26.13;12.10;;;;;;;;;;5115615;28;20813;-64
2024/02/02 04:52:24;;;;;;;23.07;11.47;;;;;;;;;;5108235;27;20485;-64
2024/02/02 04:54:53;;;;;;;22.60;11.27;;;;;;;;;;5119360;28;20454;-65
2024/02/02 04:57:21;;;;;;;21.27;9.80;;;;;;;;;;5119314;27;20870;-66
2024/02/02 04:59:48;;;;;;;28.60;11.53;;;;;;;;;;5112228;28;20508;-67
2024/02/02 05:02:14;;;;;;;22.03;11.80;;;;;;;;;;5118119;28;20446;-66
2024/02/02 05:04:41;;;;;;;18.10;10.50;;;;;;;;;;5114800;27;20459;-65
2024/02/02 05:07:08;;;;;;;17.23;11.90;;;;;;;;;;5102293;28;20466;-66
2024/02/02 05:09:34;;;;;;;19.93;11.60;;;;;;;;;;5112428;27;20517;-66
2024/02/02 05:12:01;;;;;;;21.27;12.03;;;;;;;;;;5115038;28;20485;-66
2024/02/02 05:14:29;;;;;;;22.80;11.57;;;;;;;;;;5114090;28;20454;-65
2024/02/02 05:16:56;;;;;;;16.07;9.93;;;;;;;;;;5116879;27;20958;-67
2024/02/02 05:19:22;;;;;;;24.83;12.23;;;;;;;;;;5110867;27;20499;-67
2024/02/02 05:21:49;;;;;;;16.90;10.20;;;;;;;;;;5113083;28;20468;-67
2024/02/02 05:24:15;;;;;;;21.87;11.60;;;;;;;;;;5123158;27;21030;-65
2024/02/02 05:26:42;;;;;;;26.77;11.43;;;;;;;;;;5112247;28;20466;-66
2024/02/02 05:29:08;;;;;;;18.83;10.90;;;;;;;;;;5116930;28;20473;-66
2024/02/02 05:31:36;;;;;;;22.23;11.70;;;;;;;;;;5112453;28;20450;-65
2024/02/02 05:34:03;;;;;;;23.53;11.63;;;;;;;;;;5103082;28;20512;-66
2024/02/02 05:36:30;;;;;;;24.33;11.83;;;;;;;;;;5112153;28;20484;-64
2024/02/02 05:38:56;;;;;;;21.80;10.93;;;;;;;;;;5110747;28;20771;-65
2024/02/02 05:41:23;;;;;;;23.07;12.43;;;;;;;;;;5110469;28;20458;-66
2024/02/02 05:43:49;;;;;;;32.70;13.90;;;;;;;;;;5112953;27;20454;-65
2024/02/02 05:46:16;;;;;;;29.73;12.67;;;;;;;;;;5106866;27;20467;-65
2024/02/02 05:48:44;;;;;;;27.13;12.10;;;;;;;;;;5101545;28;20524;-65
2024/02/02 05:51:10;;;;;;;21.47;12.97;;;;;;;;;;5104124;27;20514;-65
2024/02/02 05:53:37;;;;;;;21.77;12.67;;;;;;;;;;5108350;28;21355;-64
2024/02/02 05:56:04;;;;;;;22.63;10.70;;;;;;;;;;5114475;28;20462;-65
2024/02/02 05:58:30;;;;;;;24.70;11.13;;;;;;;;;;5103538;27;20521;-66
2024/02/02 06:00:57;;;;;;;30.60;13.00;;;;;;;;;;5116047;27;20458;-65
2024/02/02 06:03:24;;;;;;;18.67;12.30;;;;;;;;;;5110525;28;20914;-66
2024/02/02 06:05:54;;;;;;;24.43;12.27;;;;;;;;;;5102865;27;20461;-63
2024/02/02 06:08:21;;;;;;;21.80;11.40;;;;;;;;;;5111428;28;20541;-65
2024/02/02 06:10:48;;;;;;;27.73;11.30;;;;;;;;;;5117048;28;20489;-66
2024/02/02 06:13:17;;;;;;;21.30;11.90;;;;;;;;;;5117118;28;20446;-66
2024/02/02 06:15:43;;;;;;;29.00;12.47;;;;;;;;;;5113538;28;20807;-66
2024/02/02 06:18:11;;;;;;;27.37;12.37;;;;;;;;;;5105664;28;20496;-65
2024/02/02 06:20:38;;;;;;;17.53;10.10;;;;;;;;;;5116832;28;20464;-66
2024/02/02 06:23:06;;;;;;;22.60;10.70;;;;;;;;;;5119285;28;20454;-66
2024/02/02 06:25:32;;;;;;;25.50;10.80;;;;;;;;;;5116447;28;20538;-64
2024/02/02 06:27:58;;;;;;;32.30;12.60;;;;;;;;;;5107752;28;20451;-67
2024/02/02 06:30:26;;;;;;;24.20;10.03;;;;;;;;;;5129281;28;20486;-64
2024/02/02 06:32:59;;;;;;;18.53;10.80;;;;;;;;;;5116131;28;21231;-66
2024/02/02 06:35:26;;;;;;;30.83;11.80;;;;;;;;;;5111242;28;20455;-64
2024/02/02 06:37:52;;;;;;;19.37;10.40;;;;;;;;;;5107847;28;20459;-66
2024/02/02 06:40:21;;;;;;;20.37;9.87;;;;;;;;;;5112865;28;20454;-66
2024/02/02 06:42:47;;;;;;;28.63;9.97;;;;;;;;;;5108325;28;20448;-67
2024/02/02 06:45:14;;;;;;;21.33;8.83;;;;;;;;;;5110178;28;20449;-67
2024/02/02 06:47:41;;;;;;;20.60;9.40;;;;;;;;;;5108948;28;20439;-66
2024/02/02 06:50:08;;;;;;;19.17;9.37;;;;;;;;;;5106921;28;20490;-66
2024/02/02 06:52:35;;;;;;;20.67;9.70;;;;;;;;;;5106400;28;20995;-66
2024/02/02 06:55:02;;;;;;;20.03;10.30;;;;;;;;;;5111248;28;20446;-63
2024/02/02 06:57:31;;;;;;;27.50;9.43;;;;;;;;;;5105014;28;20462;-66
2024/02/02 06:59:59;;;;;;;21.33;11.53;;;;;;;;;;5114520;28;20450;-64
2024/02/02 07:02:30;;;;;;;28.30;12.30;;;;;;;;;;5110015;27;20479;-65
2024/02/02 07:04:56;;;;;;;16.23;9.30;;;;;;;;;;5116558;27;20948;-67
2024/02/02 07:07:22;;;;;;;23.20;7.90;;;;;;;;;;5118982;28;20947;-66
2024/02/02 07:09:51;;;;;;;19.87;9.10;;;;;;;;;;5114804;27;20489;-66
2024/02/02 07:12:30;;;;;;;20.13;8.53;;;;;;;;;;5101922;28;20215;-63
2024/02/02 07:15:02;;;;;;;13.63;7.60;;;;;;;;;;5110773;28;20454;-65
2024/02/02 07:17:33;;;;;;;16.57;8.50;;;;;;;;;;5103639;28;20446;-66
2024/02/02 07:20:00;;;;;;;11.70;7.20;;;;;;;;;;5117186;28;20884;-66
2024/02/02 07:22:37;;;;;;;20.83;8.50;;;;;;;;;;5111874;28;20446;-65
2024/02/02 07:25:05;;;;;;;16.90;7.97;;;;;;;;;;5102729;28;20481;-66
2024/02/02 07:27:59;;;;;;;15.77;8.07;;;;;;;;;;5115829;28;21033;-65
2024/02/02 07:30:47;;;;;;;22.10;7.77;;;;;;;;;;5081655;28;20490;-63
2024/02/02 07:33:19;;;;;;;21.47;8.03;;;;;;;;;;5119496;27;20992;-64
2024/02/02 07:35:46;;;;;;;16.80;8.40;;;;;;;;;;5107822;28;20485;-66
2024/02/02 07:38:24;;;;;;;13.47;7.10;;;;;;;;;;5108747;28;20562;-67
2024/02/02 07:41:04;;;;;;;10.10;7.80;;;;;;;;;;5107618;28;20792;-63
2024/02/02 07:43:33;;;;;;;25.63;8.90;;;;;;;;;;5115159;27;20505;-67
2024/02/02 07:46:01;;;;;;;11.50;7.50;;;;;;;;;;5118918;28;20446;-63
2024/02/02 07:48:27;;;;;;;21.00;9.53;;;;;;;;;;5117429;28;20447;-65
2024/02/02 07:50:54;;;;;;;15.00;7.20;;;;;;;;;;5115989;28;20737;-64
2024/02/02 07:53:21;;;;;;;18.60;7.47;;;;;;;;;;5114705;28;20463;-65
2024/02/02 07:55:47;;;;;;;16.13;6.33;;;;;;;;;;5113870;28;20874;-64
2024/02/02 07:58:14;;;;;;;16.17;8.50;;;;;;;;;;5113926;28;20442;-63
2024/02/02 08:00:40;;;;;;;16.77;8.13;;;;;;;;;;5117817;28;20443;-60
2024/02/02 08:03:08;;;;;;;16.17;7.07;;;;;;;;;;5114615;28;20499;-64
2024/02/02 08:05:37;;;;;;;18.10;7.37;;;;;;;;;;5115790;28;20454;-62
2024/02/02 08:08:03;;;;;;;17.40;7.03;;;;;;;;;;5116668;28;20501;-61
2024/02/02 08:10:30;;;;;;;19.53;7.40;;;;;;;;;;5116277;28;20560;-60
2024/02/02 08:12:57;;;;;;;15.67;6.93;;;;;;;;;;5115190;28;20446;-67
2024/02/02 08:15:24;;;;;;;17.83;7.10;;;;;;;;;;5113053;28;20450;-61
2024/02/02 08:17:51;;;;;;;15.67;6.90;;;;;;;;;;5114146;28;20488;-59
2024/02/02 08:20:19;;;;;;;17.53;6.30;;;;;;;;;;5114560;28;20528;-58
2024/02/02 08:22:46;;;;;;;10.80;6.50;;;;;;;;;;5117062;28;20458;-59
2024/02/02 08:25:13;;;;;;;10.87;6.17;;;;;;;;;;5109182;28;20451;-66
2024/02/02 08:27:39;;;;;;;17.90;8.13;;;;;;;;;;5110027;28;20457;-59
2024/02/02 08:30:07;;;;;;;14.73;6.80;;;;;;;;;;5106817;28;20532;-63
2024/02/02 08:32:34;;;;;;;13.90;6.87;;;;;;;;;;5113731;27;20454;-63
2024/02/02 08:35:01;;;;;;;15.10;7.70;;;;;;;;;;5112233;28;20454;-62
2024/02/02 08:37:29;;;;;;;13.73;8.17;;;;;;;;;;5095896;28;20702;-66
2024/02/02 08:39:56;;;;;;;14.90;8.00;;;;;;;;;;5096056;28;20536;-63
2024/02/02 08:42:23;;;;;;;18.90;9.27;;;;;;;;;;5114595;28;20465;-60
2024/02/02 08:44:50;;;;;;;14.57;8.97;;;;;;;;;;5104835;28;20533;-62
2024/02/02 08:47:17;;;;;;;18.40;8.10;;;;;;;;;;5113382;28;20450;-61
2024/02/02 08:49:47;;;;;;;12.87;8.00;;;;;;;;;;5110008;27;20471;-60
2024/02/02 08:52:18;;;;;;;11.43;7.80;;;;;;;;;;5109724;28;20494;-59
2024/02/02 08:54:53;;;;;;;18.50;9.47;;;;;;;;;;5108487;28;20458;-62
2024/02/02 08:57:39;;;;;;;14.93;8.33;;;;;;;;;;5110849;28;20457;-61
2024/02/02 09:00:13;;;;;;;15.10;8.20;;;;;;;;;;5114023;27;20461;-61
2024/02/02 09:03:00;;;;;;;16.23;7.87;;;;;;;;;;5116972;28;20750;-62
2024/02/02 09:05:29;;;;;;;19.37;8.73;;;;;;;;;;5119960;27;20443;-60
2024/02/02 09:08:08;;;;;;;13.80;8.00;;;;;;;;;;5110086;27;20501;-59
2024/02/02 09:10:53;;;;;;;15.40;8.73;;;;;;;;;;5117154;27;21106;-59
2024/02/02 09:13:24;;;;;;;19.27;8.90;;;;;;;;;;5116809;28;20454;-59
2024/02/02 09:15:51;;;;;;;13.97;7.67;;;;;;;;;;5117683;27;20503;-60
2024/02/02 09:18:24;;;;;;;17.17;9.20;;;;;;;;;;5115226;27;20766;-63
2024/02/02 09:20:51;;;;;;;19.70;9.27;;;;;;;;;;5116402;28;20867;-62
2024/02/02 09:23:18;;;;;;;16.90;9.27;;;;;;;;;;5112064;27;20985;-60
2024/02/02 09:25:45;;;;;;;13.17;7.93;;;;;;;;;;5109275;28;20490;-60
2024/02/02 09:28:34;;;;;;;16.63;9.20;;;;;;;;;;5118191;28;20446;-61
2024/02/02 09:31:01;;;;;;;17.70;8.13;;;;;;;;;;5103387;28;20493;-60
2024/02/02 09:33:38;;;;;;;20.07;9.10;;;;;;;;;;5119563;27;20446;-60
2024/02/02 09:36:06;;;;;;;12.50;9.07;;;;;;;;;;5107104;28;20484;-61
2024/02/02 09:38:33;;;;;;;22.27;9.07;;;;;;;;;;5111757;27;20523;-60
2024/02/02 09:41:21;;;;;;;15.43;10.80;;;;;;;;;;5113212;28;20487;-59
2024/02/02 09:43:54;;;;;;;27.27;11.33;;;;;;;;;;5106758;27;20443;-60
2024/02/02 09:46:23;;;;;;;15.83;10.33;;;;;;;;;;5105941;27;20466;-58
2024/02/02 09:48:56;;;;;;;13.97;9.10;;;;;;;;;;5107003;28;20447;-64
2024/02/02 09:51:28;;;;;;;19.03;9.60;;;;;;;;;;5114337;28;20485;-61
2024/02/02 09:54:09;;;;;;;14.93;9.50;;;;;;;;;;5106259;27;20483;-63
2024/02/02 09:56:41;;;;;;;24.47;10.30;;;;;;;;;;5101269;27;20454;-60
2024/02/02 09:59:13;;;;;;;18.33;8.47;;;;;;;;;;5116272;28;20442;-61
2024/02/02 10:01:51;;;;;;;18.83;9.40;;;;;;;;;;5114371;27;20463;-61
2024/02/02 10:04:25;;;;;;;13.93;9.03;;;;;;;;;;5116178;27;20451;-60
2024/02/02 10:06:59;;;;;;;18.57;9.97;;;;;;;;;;5105776;28;20453;-60
2024/02/02 10:09:33;;;;;;;20.63;10.13;;;;;;;;;;5106923;28;21293;-61
2024/02/02 10:12:14;;;;;;;21.30;10.60;;;;;;;;;;5108500;28;20494;-60
2024/02/02 10:14:55;;;;;;;24.57;10.77;;;;;;;;;;5111520;28;20868;-62
2024/02/02 10:17:36;;;;;;;30.27;17.33;;;;;;;;;;5106274;28;20439;-61
2024/02/02 10:20:21;;;;;;;18.80;14.07;;;;;;;;;;5103989;28;20467;-59
2024/02/02 10:23:03;;;;;;;16.37;14.20;;;;;;;;;;5106953;28;20484;-64
2024/02/02 10:25:39;;;;;;;19.80;10.10;;;;;;;;;;5116150;28;20497;-65
2024/02/02 10:28:15;;;;;;;24.87;15.60;;;;;;;;;;5111134;28;20855;-65
2024/02/02 10:30:50;;;;;;;15.93;10.40;;;;;;;;;;5127218;28;20481;-65
2024/02/02 10:33:25;;;;;;;23.13;13.87;;;;;;;;;;5113010;28;20485;-65
2024/02/02 10:35:57;;;;;;;22.47;10.50;;;;;;;;;;5116205;28;20450;-62
2024/02/02 10:38:31;;;;;;;14.70;9.90;;;;;;;;;;5107570;28;20486;-63
2024/02/02 10:41:02;;;;;;;17.73;10.10;;;;;;;;;;5115361;28;20465;-61
2024/02/02 10:43:29;;;;;;;19.27;10.57;;;;;;;;;;5113887;28;20441;-60
2024/02/02 10:46:01;;;;;;;15.50;10.87;;;;;;;;;;5106567;28;20501;-62
2024/02/02 10:48:48;;;;;;;20.70;11.13;;;;;;;;;;5124648;27;20514;-62
2024/02/02 10:51:25;;;;;;;21.83;9.77;;;;;;;;;;5104776;27;20498;-64
2024/02/02 10:53:57;;;;;;;21.60;12.53;;;;;;;;;;5112668;27;20461;-64
2024/02/02 10:56:29;;;;;;;24.03;12.70;;;;;;;;;;5111032;28;20466;-64
2024/02/02 10:59:04;;;;;;;24.10;12.07;;;;;;;;;;5115407;28;20471;-62
2024/02/02 11:01:35;;;;;;;21.87;11.10;;;;;;;;;;5105693;28;20462;-60
2024/02/02 11:04:04;;;;;;;20.00;11.10;;;;;;;;;;5104593;27;20519;-64
2024/02/02 11:06:38;;;;;;;26.00;12.07;;;;;;;;;;5110430;28;20455;-63
2024/02/02 11:09:10;;;;;;;17.50;11.90;;;;;;;;;;5107868;28;20458;-57
2024/02/02 11:11:39;;;;;;;17.80;11.23;;;;;;;;;;5113804;28;20482;-65
2024/02/02 11:14:12;;;;;;;17.70;11.53;;;;;;;;;;5105561;28;20887;-64
2024/02/02 11:16:47;;;;;;;16.70;10.60;;;;;;;;;;5117170;28;20479;-66
2024/02/02 11:19:20;;;;;;;23.97;11.33;;;;;;;;;;5116629;27;20508;-62
2024/02/02 11:22:01;;;;;;;22.93;10.40;;;;;;;;;;5107250;27;20637;-62
2024/02/02 11:24:35;;;;;;;18.03;13.10;;;;;;;;;;5114363;27;20478;-60
2024/02/02 11:27:04;;;;;;;23.03;12.10;;;;;;;;;;5108827;28;20935;-60
2024/02/02 11:29:36;;;;;;;24.17;13.37;;;;;;;;;;5111138;28;20998;-62
2024/02/02 11:32:06;;;;;;;27.63;12.30;;;;;;;;;;5111443;27;20542;-63
2024/02/02 11:34:35;;;;;;;25.73;12.60;;;;;;;;;;5114084;28;20438;-59
2024/02/02 11:37:07;;;;;;;22.13;11.53;;;;;;;;;;5110304;27;20446;-63
2024/02/02 11:39:39;;;;;;;22.40;12.40;;;;;;;;;;5106731;27;20846;-61
2024/02/02 11:42:07;;;;;;;27.63;14.20;;;;;;;;;;5114542;27;20454;-63
2024/02/02 11:44:34;;;;;;;28.03;13.40;;;;;;;;;;5110831;27;20560;-62
2024/02/02 11:47:03;;;;;;;26.13;12.13;;;;;;;;;;5115687;27;20464;-62
2024/02/02 11:49:31;;;;;;;24.20;12.97;;;;;;;;;;5111690;28;20438;-62
2024/02/02 11:52:02;;;;;;;24.83;13.43;;;;;;;;;;5104676;28;20731;-62
2024/02/02 11:54:33;;;;;;;28.63;13.37;;;;;;;;;;5114314;27;20461;-62
2024/02/02 11:57:02;;;;;;;18.00;10.90;;;;;;;;;;5117073;28;20945;-61
2024/02/02 11:59:30;;;;;;;19.90;12.67;;;;;;;;;;5107676;28;20459;-63
2024/02/02 12:02:06;;;;;;;19.87;12.73;;;;;;;;;;5112707;28;20450;-61
2024/02/02 12:04:37;;;;;;;17.73;12.83;;;;;;;;;;5115925;27;21035;-62
2024/02/02 12:07:07;;;;;;;21.33;12.90;;;;;;;;;;5125111;27;20974;-62
2024/02/02 12:09:40;;;;;;;26.17;13.70;;;;;;;;;;5119000;28;20454;-58
2024/02/02 12:12:11;;;;;;;24.10;13.57;;;;;;;;;;5109216;28;21068;-66
2024/02/02 12:14:43;;;;;;;26.70;15.10;;;;;;;;;;5114388;28;20866;-65
2024/02/02 12:17:12;;;;;;;28.73;14.63;;;;;;;;;;5114097;28;20454;-61
2024/02/02 12:19:40;;;;;;;26.17;12.97;;;;;;;;;;5113813;28;20494;-72
2024/02/02 12:22:06;;;;;;;21.60;13.70;;;;;;;;;;5113751;27;20481;-67
2024/02/02 12:24:34;;;;;;;20.13;12.60;;;;;;;;;;5111392;28;20471;-66
2024/02/02 12:27:01;;;;;;;20.03;12.73;;;;;;;;;;5110785;28;20476;-62
2024/02/02 12:29:29;;;;;;;24.20;14.83;;;;;;;;;;5117522;28;20936;-66
2024/02/02 12:31:55;;;;;;;19.80;14.27;;;;;;;;;;5118799;28;20486;-63
2024/02/02 12:34:22;;;;;;;22.10;14.60;;;;;;;;;;5110262;27;20461;-62
2024/02/02 12:36:48;;;;;;;24.53;14.70;;;;;;;;;;5116178;27;20447;-63
2024/02/02 12:39:15;;;;;;;23.00;14.37;;;;;;;;;;5116944;28;20534;-65
2024/02/02 12:41:42;;;;;;;26.23;15.47;;;;;;;;;;5116576;28;20454;-67
2024/02/02 12:44:08;;;;;;;27.80;16.53;;;;;;;;;;5115336;27;20446;-65
2024/02/02 12:46:44;;;;;;;30.47;14.47;;;;;;;;;;5102615;28;20485;-61
2024/02/02 12:49:11;;;;;;;21.40;14.57;;;;;;;;;;5116175;27;20506;-63
2024/02/02 12:51:38;;;;;;;20.93;14.23;;;;;;;;;;5106530;27;20490;-65
2024/02/02 12:54:05;;;;;;;21.50;14.20;;;;;;;;;;5117960;28;20449;-65
2024/02/02 12:56:31;;;;;;;24.43;14.20;;;;;;;;;;5110312;27;20538;-65
2024/02/02 12:58:58;;;;;;;28.63;15.37;;;;;;;;;;5110936;27;20695;-64
2024/02/02 13:01:26;;;;;;;24.80;16.60;;;;;;;;;;5110200;27;20463;-61
2024/02/02 13:03:54;;;;;;;29.30;16.37;;;;;;;;;;5115857;27;20872;-63
2024/02/02 13:06:21;;;;;;;27.10;16.43;;;;;;;;;;5110369;27;20577;-64
2024/02/02 13:08:47;;;;;;;27.10;16.80;;;;;;;;;;5114653;27;20685;-62
2024/02/02 13:11:19;;;;;;;29.50;18.43;;;;;;;;;;5103610;28;20695;-64
2024/02/02 13:13:46;;;;;;;29.40;19.00;;;;;;;;;;5115298;27;20457;-62
2024/02/02 13:16:22;;;;;;;25.20;18.47;;;;;;;;;;5123275;27;20763;-64
2024/02/02 13:18:49;;;;;;;25.30;17.67;;;;;;;;;;5117639;27;20798;-58
2024/02/02 13:21:26;;;;;;;27.33;19.40;;;;;;;;;;5115070;28;20455;-63
2024/02/02 13:23:54;;;;;;;31.50;18.40;;;;;;;;;;5107398;27;20489;-63
2024/02/02 13:26:21;;;;;;;31.03;20.30;;;;;;;;;;5114562;27;20458;-62
2024/02/02 13:28:48;;;;;;;34.50;21.30;;;;;;;;;;5114757;28;20450;-66
2024/02/02 13:31:18;;;;;;;34.40;21.10;;;;;;;;;;5110540;27;20519;-63
2024/02/02 13:33:53;;;;;;;28.87;21.17;;;;;;;;;;5115875;27;20449;-64
2024/02/02 13:36:22;;;;;;;33.67;21.33;;;;;;;;;;5111784;28;20450;-66
2024/02/02 13:38:54;;;;;;;33.30;21.80;;;;;;;;;;5111476;27;21113;-69
2024/02/02 13:41:21;;;;;;;36.67;22.47;;;;;;;;;;5113953;27;20469;-67
2024/02/02 13:43:56;;;;;;;31.00;20.07;;;;;;;;;;5101563;27;20517;-64
2024/02/02 13:46:22;;;;;;;32.50;19.67;;;;;;;;;;5112302;28;20457;-62
2024/02/02 13:48:54;;;;;;;32.00;18.93;;;;;;;;;;5116260;28;20450;-63
2024/02/02 13:51:23;;;;;;;30.90;19.50;;;;;;;;;;5116137;27;20462;-61
2024/02/02 13:53:52;;;;;;;32.80;20.30;;;;;;;;;;5111659;28;21032;-65
2024/02/02 13:56:24;;;;;;;24.80;18.87;;;;;;;;;;5119998;27;20484;-65
2024/02/02 13:58:51;;;;;;;31.43;18.20;;;;;;;;;;5121869;27;20468;-61
2024/02/02 14:01:20;;;;;;;38.57;20.20;;;;;;;;;;5118802;27;20457;-62
2024/02/02 14:03:47;;;;;;;29.20;21.13;;;;;;;;;;5103317;28;20441;-64
2024/02/02 14:06:13;;;;;;;30.93;20.10;;;;;;;;;;5109386;27;20458;-64
2024/02/02 14:08:40;;;;;;;32.30;21.10;;;;;;;;;;5110220;27;20505;-65
2024/02/02 14:11:08;;;;;;;29.23;19.37;;;;;;;;;;5112154;28;20457;-65
2024/02/02 14:13:35;;;;;;;34.77;21.40;;;;;;;;;;5113035;28;20500;-63
2024/02/02 14:16:02;;;;;;;39.13;22.40;;;;;;;;;;5115322;27;21038;-65
2024/02/02 14:18:29;;;;;;;35.90;23.87;;;;;;;;;;5114154;28;20883;-64
2024/02/02 14:20:56;;;;;;;34.60;23.60;;;;;;;;;;5110124;28;20752;-59
2024/02/02 14:23:22;;;;;;;34.27;22.33;;;;;;;;;;5113482;28;20519;-60
2024/02/02 14:25:49;;;;;;;32.50;22.70;;;;;;;;;;5112345;28;20859;-62
2024/02/02 14:28:17;;;;;;;35.50;23.27;;;;;;;;;;5101485;28;20462;-63
2024/02/02 14:30:44;;;;;;;40.73;22.90;;;;;;;;;;5103200;28;20450;-62